createdAt,value
2019-02-06T00:01:06.810Z,102690.91
2019-02-06T00:03:37.043Z,102690.75
2019-02-06T00:06:08.261Z,102687.19
2019-02-06T00:08:38.580Z,102675.77
2019-02-06T00:11:08.814Z,102678.42
2019-02-06T00:13:39.096Z,102673.55
2019-02-06T00:16:09.439Z,102671.36
2019-02-06T00:18:39.806Z,102671.21
2019-02-06T00:21:10.075Z,102664.42
2019-02-06T00:23:40.463Z,102658.77
2019-02-06T00:26:10.993Z,102656.94
2019-02-06T00:28:41.243Z,102660.39
2019-02-06T00:31:12.422Z,102656.50
2019-02-06T00:33:42.663Z,102655.84
2019-02-06T00:36:12.925Z,102657.17
2019-02-06T00:38:43.219Z,102654.35
2019-02-06T00:41:13.606Z,102650.92
2019-02-06T00:43:43.923Z,102648.88
2019-02-06T00:46:14.247Z,102648.50
2019-02-06T00:48:44.450Z,102651.93
2019-02-06T00:51:14.962Z,102650.31
2019-02-06T00:53:45.238Z,102646.63
2019-02-06T00:56:15.502Z,102644.42
2019-02-06T00:58:45.997Z,102640.84
2019-02-06T01:01:16.336Z,102636.80
2019-02-06T01:03:46.591Z,102644.34
2019-02-06T01:06:16.969Z,102639.27
2019-02-06T01:08:48.156Z,102640.83
2019-02-06T01:11:18.512Z,102641.50
2019-02-06T01:13:48.832Z,102642.28
2019-02-06T01:16:19.414Z,102639.69
2019-02-06T01:18:49.950Z,102640.62
2019-02-06T01:21:20.117Z,102638.85
2019-02-06T01:23:50.451Z,102641.40
2019-02-06T01:26:20.722Z,102635.04
2019-02-06T01:28:50.966Z,102649.50
2019-02-06T01:31:26.543Z,102651.88
2019-02-06T01:33:57.077Z,102640.73
2019-02-06T01:36:27.646Z,102643.17
2019-02-06T01:38:59.115Z,102630.50
2019-02-06T01:41:29.393Z,102632.45
2019-02-06T01:43:59.663Z,102625.19
2019-02-06T01:46:30.066Z,102628.55
2019-02-06T01:49:00.361Z,102627.41
2019-02-06T01:51:30.632Z,102625.87
2019-02-06T01:54:00.972Z,102621.53
2019-02-06T01:56:31.224Z,102619.17
2019-02-06T01:59:01.499Z,102613.14
2019-02-06T02:01:32.223Z,102608.75
2019-02-06T02:04:02.475Z,102608.66
2019-02-06T02:06:32.716Z,102606.86
2019-02-06T02:09:04.700Z,102601.14
2019-02-06T02:11:34.960Z,102599.92
2019-02-06T02:14:06.160Z,102587.83
2019-02-06T02:16:36.690Z,102587.89
2019-02-06T02:19:07.341Z,102581.92
2019-02-06T02:21:38.390Z,102576.52
2019-02-06T02:24:08.674Z,102571.20
2019-02-06T02:26:38.921Z,102569.91
2019-02-06T02:29:09.174Z,102573.88
2019-02-06T02:31:39.565Z,102562.13
2019-02-06T02:34:10.217Z,102556.41
2019-02-06T02:36:40.475Z,102552.17
2019-02-06T02:39:10.797Z,102547.25
2019-02-06T02:41:41.127Z,102536.23
2019-02-06T02:44:11.412Z,102530.69
2019-02-06T02:46:41.838Z,102526.01
2019-02-06T02:49:12.093Z,102522.73
2019-02-06T02:51:44.467Z,102517.66
2019-02-06T02:54:15.010Z,102520.55
2019-02-06T02:56:45.566Z,102515.56
2019-02-06T02:59:16.070Z,102518.52
2019-02-06T03:02:14.411Z,102503.01
2019-02-06T03:04:49.695Z,102504.48
2019-02-06T03:07:20.239Z,102509.96
2019-02-06T03:09:50.767Z,102504.31
2019-02-06T03:12:21.043Z,102507.03
2019-02-06T03:14:51.357Z,102497.28
2019-02-06T03:17:21.613Z,102500.86
2019-02-06T03:19:51.932Z,102493.23
2019-02-06T03:22:22.229Z,102497.66
2019-02-06T03:24:52.531Z,102493.74
2019-02-06T03:27:22.857Z,102491.02
2019-02-06T03:29:53.116Z,102482.75
2019-02-06T03:32:23.387Z,102474.19
2019-02-06T03:34:55.448Z,102470.02
2019-02-06T03:37:25.703Z,102470.54
2019-02-06T03:39:56.212Z,102460.62
2019-02-06T03:42:26.493Z,102452.39
2019-02-06T03:44:56.862Z,102446.63
2019-02-06T03:47:27.082Z,102447.87
2019-02-06T03:49:57.698Z,102443.61
2019-02-06T03:52:27.961Z,102441.16
2019-02-06T03:54:58.256Z,102436.28
2019-02-06T03:57:28.631Z,102434.28
2019-02-06T03:59:58.887Z,102433.15
2019-02-06T04:02:29.101Z,102436.42
2019-02-06T04:04:59.428Z,102434.53
2019-02-06T04:07:29.679Z,102419.89
2019-02-06T04:09:59.938Z,102406.70
2019-02-06T04:12:30.304Z,102402.23
2019-02-06T04:15:00.602Z,102404.91
2019-02-06T04:17:31.329Z,102397.31
2019-02-06T04:20:01.784Z,102394.86
2019-02-06T04:22:32.036Z,102389.30
2019-02-06T04:25:03.411Z,102384.20
2019-02-06T04:27:34.669Z,102380.92
2019-02-06T04:30:06.514Z,102372.97
2019-02-06T04:32:36.797Z,102369.05
2019-02-06T04:35:09.929Z,102353.66
2019-02-06T04:37:40.145Z,102348.35
2019-02-06T04:40:17.107Z,102343.59
2019-02-06T04:42:48.073Z,102335.41
2019-02-06T04:45:18.958Z,102323.70
2019-02-06T04:47:49.205Z,102317.75
2019-02-06T04:50:19.805Z,102314.59
2019-02-06T04:52:50.086Z,102316.44
2019-02-06T04:55:20.377Z,102311.19
2019-02-06T04:57:51.274Z,102315.92
2019-02-06T05:00:25.784Z,102323.18
2019-02-06T05:02:56.126Z,102323.95
2019-02-06T05:05:26.720Z,102325.94
2019-02-06T05:07:56.962Z,102327.81
2019-02-06T05:10:27.554Z,102319.42
2019-02-06T05:12:58.160Z,102314.95
2019-02-06T05:15:28.589Z,102313.22
2019-02-06T05:17:58.903Z,102304.56
2019-02-06T05:20:40.869Z,102302.65
2019-02-06T05:23:11.693Z,102299.67
2019-02-06T05:25:42.052Z,102304.58
2019-02-06T05:28:12.312Z,102298.77
2019-02-06T05:30:42.600Z,102299.97
2019-02-06T05:33:12.983Z,102301.44
2019-02-06T05:35:43.236Z,102292.48
2019-02-06T05:38:13.551Z,102284.93
2019-02-06T05:40:43.896Z,102279.93
2019-02-06T05:43:14.446Z,102283.69
2019-02-06T05:45:44.752Z,102290.47
2019-02-06T05:48:15.169Z,102281.70
2019-02-06T05:50:45.450Z,102270.30
2019-02-06T05:53:15.848Z,102279.39
2019-02-06T05:55:46.167Z,102281.45
2019-02-06T05:58:16.443Z,102280.42
2019-02-06T06:00:48.988Z,102281.99
2019-02-06T06:03:19.485Z,102275.22
2019-02-06T06:05:50.037Z,102269.27
2019-02-06T06:08:20.367Z,102268.55
2019-02-06T06:10:50.895Z,102266.89
2019-02-06T06:13:21.433Z,102263.84
2019-02-06T06:15:51.735Z,102256.22
2019-02-06T06:18:22.433Z,102251.05
2019-02-06T06:20:53.071Z,102248.41
2019-02-06T06:23:23.449Z,102244.16
2019-02-06T06:25:53.819Z,102237.84
2019-02-06T06:28:24.120Z,102237.55
2019-02-06T06:30:54.730Z,102234.44
2019-02-06T06:33:25.011Z,102232.67
2019-02-06T06:35:55.589Z,102226.95
2019-02-06T06:38:25.919Z,102230.67
2019-02-06T06:40:56.197Z,102229.22
2019-02-06T06:43:26.475Z,102234.58
2019-02-06T06:45:57.085Z,102232.10
2019-02-06T06:48:27.469Z,102226.09
2019-02-06T06:50:57.721Z,102222.86
2019-02-06T06:53:28.081Z,102219.64
2019-02-06T06:55:58.629Z,102222.28
2019-02-06T06:58:29.221Z,102229.92
2019-02-06T07:00:59.939Z,102219.95
2019-02-06T07:03:31.027Z,102214.62
2019-02-06T07:06:01.701Z,102224.28
2019-02-06T07:08:32.083Z,102235.42
2019-02-06T07:11:02.387Z,102236.00
2019-02-06T07:13:32.660Z,102234.67
2019-02-06T07:16:03.853Z,102229.61
2019-02-06T07:18:34.114Z,102228.75
2019-02-06T07:21:04.516Z,102226.53
2019-02-06T07:23:34.844Z,102218.80
2019-02-06T07:26:05.167Z,102214.81
2019-02-06T07:28:35.477Z,102217.06
2019-02-06T07:31:08.739Z,102211.41
2019-02-06T07:33:38.996Z,102200.28
2019-02-06T07:36:09.283Z,102203.74
2019-02-06T07:38:39.990Z,102198.17
2019-02-06T07:41:10.233Z,102195.19
2019-02-06T07:43:40.624Z,102199.91
2019-02-06T07:46:10.963Z,102190.48
2019-02-06T07:48:41.264Z,102195.08
2019-02-06T07:51:11.618Z,102192.49
2019-02-06T07:53:42.275Z,102180.27
2019-02-06T07:56:13.482Z,102173.38
2019-02-06T07:58:44.741Z,102163.53
2019-02-06T08:01:15.077Z,102162.03
2019-02-06T08:03:45.338Z,102161.13
2019-02-06T08:06:15.636Z,102166.19
2019-02-06T08:08:46.009Z,102167.27
2019-02-06T08:11:16.281Z,102164.95
2019-02-06T08:13:46.607Z,102171.64
2019-02-06T08:16:16.925Z,102174.43
2019-02-06T08:18:47.226Z,102173.50
2019-02-06T08:21:17.453Z,102172.22
2019-02-06T08:23:47.842Z,102174.76
2019-02-06T08:26:18.153Z,102175.19
2019-02-06T08:28:48.419Z,102167.09
2019-02-06T08:31:18.723Z,102168.41
2019-02-06T08:33:49.128Z,102166.45
2019-02-06T08:36:19.430Z,102157.83
2019-02-06T08:38:49.730Z,102144.31
2019-02-06T08:41:20.806Z,102144.11
2019-02-06T08:43:51.212Z,102144.16
2019-02-06T08:46:21.766Z,102143.33
2019-02-06T08:48:52.120Z,102139.99
2019-02-06T08:51:22.877Z,102139.17
2019-02-06T08:53:53.460Z,102136.94
2019-02-06T08:56:23.812Z,102141.02
2019-02-06T08:58:54.332Z,102130.03
2019-02-06T09:01:24.629Z,102124.39
2019-02-06T09:03:54.942Z,102126.28
2019-02-06T09:06:25.556Z,102137.31
2019-02-06T09:08:59.796Z,102141.47
2019-02-06T09:11:28.250Z,102135.84
2019-02-06T09:13:58.880Z,102140.81
2019-02-06T09:16:29.141Z,102137.63
2019-02-06T09:18:59.776Z,102130.46
2019-02-06T09:21:30.145Z,102127.80
2019-02-06T09:24:00.748Z,102123.78
2019-02-06T09:26:35.429Z,102125.03
2019-02-06T09:29:03.378Z,102115.61
2019-02-06T09:31:33.662Z,102111.21
2019-02-06T09:34:04.191Z,102115.33
2019-02-06T09:36:34.823Z,102109.93
2019-02-06T09:39:11.696Z,102115.94
2019-02-06T09:41:40.554Z,102113.14
2019-02-06T09:44:10.797Z,102115.97
2019-02-06T09:46:41.070Z,102112.16
2019-02-06T09:49:11.462Z,102109.70
2019-02-06T09:51:41.732Z,102118.61
2019-02-06T09:54:12.374Z,102114.45
2019-02-06T09:56:42.698Z,102111.62
2019-02-06T09:59:12.959Z,102111.83
2019-02-06T10:01:43.536Z,102103.42
2019-02-06T10:04:14.324Z,102101.91
2019-02-06T10:06:44.913Z,102105.00
2019-02-06T10:09:22.640Z,102096.48
2019-02-06T10:11:47.762Z,102092.42
2019-02-06T10:14:18.165Z,102095.61
2019-02-06T10:16:48.415Z,102099.08
2019-02-06T10:19:18.751Z,102096.88
2019-02-06T10:21:52.768Z,102100.57
2019-02-06T10:24:21.506Z,102095.92
2019-02-06T10:26:51.751Z,102101.02
2019-02-06T10:29:22.606Z,102097.00
2019-02-06T10:31:53.280Z,102098.70
2019-02-06T10:34:23.735Z,102096.68
2019-02-06T10:36:53.980Z,102100.58
2019-02-06T10:39:34.113Z,102100.78
2019-02-06T10:41:56.318Z,102098.91
2019-02-06T10:44:26.573Z,102102.45
2019-02-06T10:46:56.905Z,102103.61
2019-02-06T10:49:27.161Z,102124.56
2019-02-06T10:51:57.545Z,102118.23
2019-02-06T10:54:28.041Z,102111.52
2019-02-06T10:56:58.358Z,102102.95
2019-02-06T10:59:28.969Z,102108.37
2019-02-06T11:01:59.320Z,102109.08
2019-02-06T11:04:29.631Z,102111.37
2019-02-06T11:06:59.957Z,102110.15
2019-02-06T11:09:30.464Z,102107.34
2019-02-06T11:12:00.737Z,102105.50
2019-02-06T11:14:31.098Z,102096.37
2019-02-06T11:17:01.369Z,102097.87
2019-02-06T11:19:31.675Z,102091.31
2019-02-06T11:22:02.398Z,102093.31
2019-02-06T11:24:32.933Z,102081.20
2019-02-06T11:27:03.865Z,102087.55
2019-02-06T11:29:34.176Z,102084.08
2019-02-06T11:32:04.468Z,102078.42
2019-02-06T11:34:34.734Z,102077.78
2019-02-06T11:37:05.093Z,102067.53
2019-02-06T11:39:35.422Z,102064.86
2019-02-06T11:42:06.128Z,102060.02
2019-02-06T11:44:36.462Z,102063.49
2019-02-06T11:47:06.718Z,102057.43
2019-02-06T11:49:39.868Z,102059.22
2019-02-06T11:52:10.238Z,102057.96
2019-02-06T11:54:40.831Z,102056.45
2019-02-06T11:57:11.598Z,102059.59
2019-02-06T11:59:42.374Z,102060.19
2019-02-06T12:02:17.085Z,102058.88
2019-02-06T12:04:47.771Z,102055.12
2019-02-06T12:07:18.848Z,102053.89
2019-02-06T12:09:49.210Z,102053.70
2019-02-06T12:12:19.519Z,102042.81
2019-02-06T12:14:50.165Z,102043.67
2019-02-06T12:17:20.455Z,102041.93
2019-02-06T12:19:50.748Z,102039.98
2019-02-06T12:22:21.595Z,102049.86
2019-02-06T12:24:52.706Z,102048.08
2019-02-06T12:27:22.953Z,102048.00
2019-02-06T12:29:53.296Z,102048.08
2019-02-06T12:32:23.529Z,102038.72
2019-02-06T12:34:53.752Z,102037.77
2019-02-06T12:37:24.409Z,102033.67
2019-02-06T12:39:54.844Z,102031.20
2019-02-06T12:42:25.049Z,102031.61
2019-02-06T12:44:55.415Z,102026.07
2019-02-06T12:47:26.912Z,102029.95
2019-02-06T12:49:57.439Z,102017.81
2019-02-06T12:52:27.765Z,102021.22
2019-02-06T12:54:58.145Z,102017.25
2019-02-06T12:57:36.213Z,102010.94
2019-02-06T13:00:00.538Z,102006.69
2019-02-06T13:02:30.744Z,101991.68
2019-02-06T13:05:01.036Z,101990.78
2019-02-06T13:07:32.297Z,101989.72
2019-02-06T13:10:02.856Z,101996.08
2019-02-06T13:12:33.122Z,101998.41
2019-02-06T13:15:03.500Z,101991.97
2019-02-06T13:17:34.070Z,101999.38
2019-02-06T13:20:05.257Z,101997.33
2019-02-06T13:22:35.588Z,101988.10
2019-02-06T13:25:07.405Z,101988.38
2019-02-06T13:27:37.703Z,101988.50
2019-02-06T13:30:13.151Z,101982.09
2019-02-06T13:32:43.634Z,101989.47
2019-02-06T13:35:15.316Z,101987.64
2019-02-06T13:37:45.836Z,101972.25
2019-02-06T13:40:18.728Z,101966.76
2019-02-06T13:42:49.037Z,101968.69
2019-02-06T13:45:23.141Z,101969.84
2019-02-06T13:47:53.493Z,101964.81
2019-02-06T13:50:24.306Z,101968.59
2019-02-06T13:52:55.414Z,101970.75
2019-02-06T13:55:25.811Z,101964.25
2019-02-06T13:57:56.103Z,101967.36
2019-02-06T14:00:32.775Z,101979.45
2019-02-06T14:03:03.456Z,101977.97
2019-02-06T14:05:34.290Z,101972.06
2019-02-06T14:08:08.203Z,101965.78
2019-02-06T14:10:38.425Z,101966.68
2019-02-06T14:13:08.839Z,101962.39
2019-02-06T14:15:41.882Z,101960.81
2019-02-06T14:18:12.654Z,101956.46
2019-02-06T14:20:43.472Z,101962.11
2019-02-06T14:23:41.388Z,101958.19
2019-02-06T14:26:51.448Z,101956.92
2019-02-06T14:29:57.593Z,101948.76
2019-02-06T14:33:39.189Z,101938.75
2019-02-06T14:36:56.130Z,101945.72
2019-02-06T14:40:05.399Z,101935.63
2019-02-06T14:43:13.498Z,101947.48
2019-02-06T14:46:32.050Z,101943.05
2019-02-06T14:49:45.530Z,101943.94
2019-02-06T14:53:08.458Z,101947.69
2019-02-06T14:56:32.870Z,101947.18
2019-02-06T15:00:04.580Z,101931.87
2019-02-06T15:03:24.966Z,101921.13
2019-02-06T15:07:04.404Z,101930.05
2019-02-06T15:10:08.371Z,101919.69
2019-02-06T15:13:37.694Z,101925.44
2019-02-06T15:16:50.701Z,101923.47
2019-02-06T15:19:56.426Z,101925.73
2019-02-06T15:23:19.560Z,101926.55
2019-02-06T15:26:38.983Z,101926.20
2019-02-06T15:29:43.338Z,101922.12
2019-02-06T15:33:01.136Z,101914.91
2019-02-06T15:36:19.692Z,101921.02
2019-02-06T15:39:59.233Z,101919.98
2019-02-06T15:43:07.912Z,101918.63
2019-02-06T15:46:56.330Z,101912.44
2019-02-06T15:50:26.766Z,101915.80
2019-02-06T15:53:58.274Z,101922.30
2019-02-06T15:57:32.790Z,101920.20
2019-02-06T16:01:05.243Z,101918.27
2019-02-06T16:04:32.460Z,101914.85
2019-02-06T16:08:09.997Z,101910.11
2019-02-06T16:11:17.578Z,101900.13
2019-02-06T16:14:43.497Z,101903.91
2019-02-06T16:18:34.232Z,101901.98
2019-02-06T16:21:52.791Z,101902.01
2019-02-06T16:24:49.354Z,101896.66
2019-02-06T16:27:57.528Z,101891.77
2019-02-06T16:31:36.366Z,101889.59
2019-02-06T16:34:31.983Z,101895.53
2019-02-06T16:38:09.717Z,101903.48
2019-02-06T16:41:22.420Z,101908.12
2019-02-06T16:44:47.928Z,101908.31
2019-02-06T16:47:56.699Z,101906.79
2019-02-06T16:51:26.030Z,101907.05
2019-02-06T16:54:57.360Z,101907.48
2019-02-06T16:58:25.346Z,101905.98
2019-02-06T17:02:10.141Z,101896.25
2019-02-06T17:05:52.843Z,101888.31
2019-02-06T17:09:10.417Z,101895.02
2019-02-06T17:12:31.524Z,101905.69
2019-02-06T17:16:13.119Z,101904.17
2019-02-06T17:19:40.044Z,101906.70
2019-02-06T17:22:56.742Z,101908.26
2019-02-06T17:26:32.474Z,101906.36
2019-02-06T17:30:08.714Z,101906.33
2019-02-06T17:33:35.022Z,101899.52
2019-02-06T17:37:05.905Z,101897.25
2019-02-06T17:40:18.212Z,101890.25
2019-02-06T17:43:55.218Z,101889.11
2019-02-06T17:46:55.745Z,101889.02
2019-02-06T17:50:31.580Z,101890.12
2019-02-06T17:53:47.845Z,101887.46
2019-02-06T17:56:18.959Z,101880.46
2019-02-06T17:58:49.238Z,101878.91
2019-02-06T18:01:35.386Z,101890.19
2019-02-06T18:04:28.733Z,101881.37
2019-02-06T18:06:59.247Z,101880.78
2019-02-06T18:09:30.814Z,101881.46
2019-02-06T18:12:01.075Z,101881.63
2019-02-06T18:14:31.395Z,101875.05
2019-02-06T18:17:05.383Z,101874.89
2019-02-06T18:19:40.203Z,101871.69
2019-02-06T18:22:10.823Z,101878.06
2019-02-06T18:24:41.237Z,101867.02
2019-02-06T18:27:13.014Z,101876.22
2019-02-06T18:29:43.391Z,101875.53
2019-02-06T18:32:13.724Z,101871.71
2019-02-06T18:34:44.166Z,101870.16
2019-02-06T18:37:14.413Z,101873.95
2019-02-06T18:39:44.780Z,101876.38
2019-02-06T18:42:15.048Z,101880.91
2019-02-06T18:44:45.447Z,101876.41
2019-02-06T18:47:15.827Z,101876.31
2019-02-06T18:49:46.677Z,101881.59
2019-02-06T18:52:20.442Z,101874.95
2019-02-06T18:54:49.112Z,101864.33
2019-02-06T18:57:19.400Z,101859.73
2019-02-06T18:59:49.714Z,101858.14
2019-02-06T19:02:20.113Z,101860.89
2019-02-06T19:04:50.471Z,101858.85
2019-02-06T19:07:23.645Z,101851.89
2019-02-06T19:09:53.480Z,101853.18
2019-02-06T19:12:23.798Z,101853.50
2019-02-06T19:14:55.086Z,101848.91
2019-02-06T19:17:25.377Z,101844.47
2019-02-06T19:19:55.609Z,101842.39
2019-02-06T19:22:26.344Z,101843.85
2019-02-06T19:24:56.700Z,101843.30
2019-02-06T19:27:26.924Z,101835.65
2019-02-06T19:29:57.345Z,101843.23
2019-02-06T19:32:27.617Z,101843.75
2019-02-06T19:34:57.961Z,101840.16
2019-02-06T19:37:28.616Z,101835.07
2019-02-06T19:39:58.903Z,101829.81
2019-02-06T19:42:29.272Z,101832.58
2019-02-06T19:44:59.757Z,101826.02
2019-02-06T19:47:30.694Z,101820.07
2019-02-06T19:50:01.107Z,101820.69
2019-02-06T19:52:31.857Z,101826.66
2019-02-06T19:55:03.025Z,101820.19
2019-02-06T19:57:33.271Z,101821.06
2019-02-06T20:00:03.883Z,101821.48
2019-02-06T20:02:34.243Z,101819.81
2019-02-06T20:05:05.129Z,101816.92
2019-02-06T20:07:35.678Z,101809.98
2019-02-06T20:10:09.981Z,101809.17
2019-02-06T20:12:40.467Z,101801.52
2019-02-06T20:15:11.250Z,101799.09
2019-02-06T20:17:41.599Z,101789.16
2019-02-06T20:20:15.295Z,101790.30
2019-02-06T20:22:45.640Z,101798.28
2019-02-06T20:25:20.269Z,101798.00
2019-02-06T20:27:56.499Z,101787.76
2019-02-06T20:30:33.783Z,101793.75
2019-02-06T20:33:10.120Z,101788.78
2019-02-06T20:35:40.835Z,101775.48
2019-02-06T20:38:11.364Z,101773.40
2019-02-06T20:40:43.437Z,101765.17
2019-02-06T20:43:21.673Z,101768.70
2019-02-06T20:45:46.303Z,101764.38
2019-02-06T20:48:18.413Z,101758.58
2019-02-06T20:50:51.509Z,101757.70
2019-02-06T20:53:21.778Z,101753.91
2019-02-06T20:55:53.211Z,101753.83
2019-02-06T20:58:28.591Z,101745.99
2019-02-06T21:00:59.273Z,101735.03
2019-02-06T21:03:35.784Z,101730.77
2019-02-06T21:06:14.083Z,101727.17
2019-02-06T21:08:50.376Z,101722.31
2019-02-06T21:11:27.155Z,101724.72
2019-02-06T21:14:05.323Z,101717.11
2019-02-06T21:16:41.699Z,101717.52
2019-02-06T21:19:20.263Z,101714.80
2019-02-06T21:21:57.135Z,101716.96
2019-02-06T21:24:34.190Z,101705.00
2019-02-06T21:27:10.291Z,101702.33
2019-02-06T21:29:47.420Z,101697.36
2019-02-06T21:32:24.803Z,101693.05
2019-02-06T21:35:01.414Z,101687.51
2019-02-06T21:37:38.612Z,101674.84
2019-02-06T21:40:20.386Z,101677.46
2019-02-06T21:42:57.837Z,101668.80
2019-02-06T21:45:36.668Z,101660.34
2019-02-06T21:48:13.168Z,101662.53
2019-02-06T21:50:50.392Z,101666.15
2019-02-06T21:53:27.044Z,101668.13
2019-02-06T21:55:57.464Z,101660.32
2019-02-06T21:58:27.831Z,101660.16
2019-02-06T22:00:58.672Z,101655.38
2019-02-06T22:03:28.935Z,101669.33
2019-02-06T22:05:59.168Z,101666.06
2019-02-06T22:08:29.505Z,101657.86
2019-02-06T22:10:59.790Z,101662.59
2019-02-06T22:13:30.046Z,101664.72
2019-02-06T22:16:00.508Z,101670.34
2019-02-06T22:18:31.380Z,101678.30
2019-02-06T22:21:02.060Z,101673.77
2019-02-06T22:23:32.415Z,101680.98
2019-02-06T22:26:02.663Z,101676.59
2019-02-06T22:28:33.229Z,101679.03
2019-02-06T22:31:03.799Z,101671.68
2019-02-06T22:33:34.061Z,101672.62
2019-02-06T22:36:04.443Z,101673.33
2019-02-06T22:38:34.816Z,101667.79
2019-02-06T22:41:05.324Z,101664.95
2019-02-06T22:43:35.588Z,101663.47
2019-02-06T22:46:05.944Z,101653.92
2019-02-06T22:48:36.351Z,101655.03
2019-02-06T22:51:06.624Z,101651.94
2019-02-06T22:53:36.959Z,101652.97
2019-02-06T22:56:07.374Z,101648.79
2019-02-06T22:58:37.676Z,101649.50
2019-02-06T23:01:46.039Z,101639.93
2019-02-06T23:04:16.295Z,101638.44
2019-02-06T23:06:46.654Z,101632.56
2019-02-06T23:09:16.978Z,101623.44
2019-02-06T23:11:47.259Z,101616.16
2019-02-06T23:14:18.890Z,101615.03
2019-02-06T23:16:49.623Z,101613.99
2019-02-06T23:19:19.879Z,101612.59
2019-02-06T23:21:50.791Z,101602.73
2019-02-06T23:24:21.470Z,101599.30
2019-02-06T23:26:51.706Z,101596.05
2019-02-06T23:29:22.379Z,101594.47
2019-02-06T23:31:52.702Z,101586.45
2019-02-06T23:34:22.902Z,101579.59
2019-02-06T23:36:53.415Z,101575.94
2019-02-06T23:39:23.790Z,101564.05
2019-02-06T23:41:54.046Z,101562.63
2019-02-06T23:44:28.980Z,101554.80
2019-02-06T23:46:56.389Z,101559.16
2019-02-06T23:49:26.597Z,101548.97
2019-02-06T23:51:56.887Z,101548.64
2019-02-06T23:54:27.342Z,101541.26
2019-02-06T23:56:57.819Z,101540.15
2019-02-06T23:59:28.132Z,101533.86
